Stations météo

réclame
Mon MeteoGroup
Beitem, Belgique (6414): Température de l'air & dewpoint: 20.10.2020 22:00:00 - 26.10.2020 22:00:00 (CET)Beitem, Belgique (6414): Vitesse du vent & gusts: 20.10.2020 22:00:00 - 26.10.2020 22:00:00 (CET)Beitem, Belgique (6414): Direction du vent: 20.10.2020 22:00:00 - 26.10.2020 22:00:00 (CET)Beitem, Belgique (6414): reduced air pressure: 20.10.2020 22:00:00 - 26.10.2020 22:00:00 (CET)Beitem, Belgique (6414): Ensoleillement: 20.10.2020 22:00:00 - 26.10.2020 22:00:00 (CET)Beitem, Belgique (6414): Quantités de précipitations: 20.10.2020 22:00:00 - 26.10.2020 22:00:00 (CET)
Date & Time tt [°C] td [°C] ff [km/h] ff [knt] fx [km/h] fx [knt] dd ppp [hPa] sd [min] rr [mm]
26.10.2020 22:00:00 9,0 8,2 16 8 25 13 SSW 1002,7 0 0,0
26.10.2020 21:00:00 9,1 8,1 16 9 26 14 SSW 1002,1 0 0,0
26.10.2020 20:00:00 9,7 8,0 14 8 27 15 SSW 1002,0 0 0,0
26.10.2020 19:00:00 10,6 8,1 18 10 37 20 SSW 1001,6 0 0,0
26.10.2020 18:00:00 10,8 8,3 19 10 36 20 SSW 1001,1 6 0,0
26.10.2020 17:00:00 11,5 8,5 21 11 40 22 SW 1001,1 47 0,0
26.10.2020 16:00:00 11,2 8,1 19 11 44 24 SW 1000,5 14 0,0
26.10.2020 15:00:00 12,3 8,5 25 14 47 25 SW 1000,3 33 0,0
26.10.2020 14:00:00 11,9 8,5 23 13 45 24 SW 1000,5 44 0,0
26.10.2020 13:00:00 12,0 8,3 25 14 44 24 SW 1000,7 57 0,0
26.10.2020 12:00:00 11,1 8,5 25 13 42 23 SW 1001,0 50 0,0
26.10.2020 11:00:00 9,0 8,2 19 10 47 26 SSW 1001,1 13 0,6
26.10.2020 10:00:00 9,0 7,5 30 16 42 23 SSW 1001,4 50 0,0
26.10.2020 09:00:00 8,0 7,3 18 10 32 18 SSW 1001,0 7 0,0
26.10.2020 08:00:00 7,8 6,9 16 9 27 14 S 1000,6 0 0,0
26.10.2020 07:00:00 7,6 7,0 14 8 26 14 S 1000,4 0 0,0
26.10.2020 06:00:00 7,5 7,0 14 8 26 14 SSW 999,9 0 0,0
26.10.2020 05:00:00 7,9 7,5 15 8 24 13 SSW 999,6 0 0,0
26.10.2020 04:00:00 7,9 7,5 17 9 27 15 S 1000,1 0 0,0
26.10.2020 03:00:00 7,8 7,6 10 5 20 11 SSW 999,8 0 0,0
26.10.2020 02:00:00 8,3 7,8 13 7 27 15 SSW 999,8 0 0,0
26.10.2020 01:00:00 8,6 8,2 14 8 23 12 SSW 1000,5 0 0,0
26.10.2020 00:00:00 8,9 8,3 14 8 22 12 S 1000,5 0 0,0
25.10.2020 23:00:00 8,8 7,4 12 6 29 16 SSW 1000,7 0 0,0
25.10.2020 22:00:00 10,0 7,7 18 10 26 14 SSW 1000,6 0 0,0
25.10.2020 21:00:00 10,6 8,6 12 7 23 13 S 1000,6 0 0,0
25.10.2020 20:00:00 11,1 9,5 17 9 27 15 S 1000,6 0 0,0
25.10.2020 19:00:00 9,3 8,3 7 4 25 13 S 1000,5 0 0,2
25.10.2020 18:00:00 10,4 9,2 19 10 49 26 SSW 1001,1 0 1,4
25.10.2020 17:00:00 12,2 10,1 22 12 40 21 S 1000,8 10 0,0
25.10.2020 16:00:00 12,5 10,2 23 12 34 18 S 1000,5 8 0,0
25.10.2020 15:00:00 12,5 10,4 18 10 31 17 S 1000,6 1 0,0
25.10.2020 14:00:00 12,6 10,4 19 11 38 20 SSW 1001,0 0 0,0
25.10.2020 13:00:00 12,6 10,5 25 14 39 21 SSW 1001,5 1 0,0
25.10.2020 12:00:00 12,2 10,7 15 8 29 15 SSW 1001,4 0 0,0
25.10.2020 11:00:00 11,8 10,7 16 9 26 14 SSW 1001,8 0 0,0
25.10.2020 10:00:00 11,7 10,6 16 9 26 14 SSW 1001,5 0 0,0
25.10.2020 09:00:00 11,2 10,3 14 8 25 14 S 1001,5 0 0,0
25.10.2020 08:00:00 11,1 10,2 11 6 29 15 S 1001,2 0 0,0
25.10.2020 07:00:00 11,1 10,2 18 10 30 16 SSW 1001,0 0 0,0
25.10.2020 06:00:00 11,0 10,3 18 10 30 16 S 1000,5 0 0,5
25.10.2020 05:00:00 11,3 10,6 16 9 32 18 SSW 1001,0 0 0,3
25.10.2020 04:00:00 12,7 10,2 23 13 61 33 WSW 1001,1 0 0,5
25.10.2020 03:00:00 14,7 11,7 30 16 53 28 S 1000,6 0 0,1
25.10.2020 02:00:00 15,1 11,6 33 18 58 31 SSW 1001,3 0 0,0
25.10.2020 01:00:00 - - - - - - - - - -
25.10.2020 00:00:00 15,7 12,6 32 17 63 34 SSW 1002,0 0 0,0
24.10.2020 23:00:00 15,6 12,9 34 18 60 33 S 1002,8 0 0,1
24.10.2020 22:00:00 15,6 13,1 34 18 59 32 S 1002,9 0 0,0
24.10.2020 21:00:00 15,8 13,3 38 20 63 34 S 1003,8 0 0,0
24.10.2020 20:00:00 15,8 13,6 34 18 56 31 S 1004,4 0 0,1
24.10.2020 19:00:00 15,6 13,7 32 18 56 30 S 1005,1 0 0,0
24.10.2020 18:00:00 15,7 13,3 26 14 51 28 S 1005,8 0 0,0
24.10.2020 17:00:00 15,6 13,5 23 13 40 22 S 1007,0 0 0,0
24.10.2020 16:00:00 15,6 13,8 24 13 53 29 S 1007,8 1 0,0
24.10.2020 15:00:00 16,0 13,6 28 15 50 27 SSW 1008,3 0 0,0
24.10.2020 14:00:00 15,5 13,5 22 12 51 27 S 1008,9 0 0,0
24.10.2020 13:00:00 14,7 13,8 24 13 44 24 S 1009,6 1 0,0
24.10.2020 12:00:00 14,8 12,5 29 16 44 24 SSW 1010,3 9 0,0
24.10.2020 11:00:00 13,9 12,1 23 12 40 22 SSW 1010,7 10 0,0
24.10.2020 10:00:00 13,1 12,0 24 13 40 22 SSW 1011,2 38 0,0
24.10.2020 09:00:00 12,4 11,7 22 12 36 19 S 1011,3 1 0,0
24.10.2020 08:00:00 11,9 11,5 20 11 34 19 SSW 1011,2 0 0,0
24.10.2020 07:00:00 12,0 11,3 22 12 38 21 SSW 1011,3 0 0,0
24.10.2020 06:00:00 12,0 11,1 20 11 31 17 S 1011,4 0 0,0
24.10.2020 05:00:00 11,7 10,9 16 9 26 14 SSW 1011,7 0 0,0
24.10.2020 04:00:00 12,2 11,4 10 5 17 9 SSW 1012,0 0 0,0
24.10.2020 03:00:00 11,7 11,5 6 3 23 13 SSW 1012,6 0 0,0
24.10.2020 02:00:00 12,1 11,6 13 7 29 16 WSW 1012,8 0 0,0
24.10.2020 01:00:00 12,1 11,4 11 6 25 13 SW 1012,8 0 0,0
24.10.2020 00:00:00 12,3 11,5 17 9 26 14 SSW 1012,6 0 0,0
23.10.2020 23:00:00 12,1 11,7 10 6 18 10 SSW 1012,7 0 0,0
23.10.2020 22:00:00 11,9 11,1 11 6 19 10 SSW 1012,5 0 0,0
23.10.2020 21:00:00 13,1 12,4 11 6 25 13 SW 1011,9 0 0,0
23.10.2020 20:00:00 13,4 12,4 15 8 34 19 SW 1011,5 0 0,3
23.10.2020 19:00:00 13,7 11,6 11 6 21 12 SW 1010,9 0 0,0
23.10.2020 18:00:00 14,5 11,4 14 8 26 14 SW 1010,5 9 0,0
23.10.2020 17:00:00 15,3 11,3 14 8 30 16 SW 1010,1 3 0,0
23.10.2020 16:00:00 16,4 11,3 18 10 34 19 WSW 1010,2 26 0,0
23.10.2020 15:00:00 17,3 12,3 16 9 32 18 SW 1009,9 54 0,0
23.10.2020 14:00:00 17,1 13,9 16 8 33 18 SSW 1010,1 53 0,0
23.10.2020 13:00:00 14,9 13,4 18 10 27 15 SSW 1010,5 53 0,0
23.10.2020 12:00:00 13,9 13,9 15 8 21 12 SSW 1010,7 16 0,0
23.10.2020 11:00:00 12,6 12,6 10 5 18 10 SSW 1011,1 4 0,0
23.10.2020 10:00:00 11,6 11,6 10 6 16 9 SSW 1011,0 1 0,0
23.10.2020 09:00:00 10,8 10,8 6 4 14 8 S 1010,7 0 0,0
23.10.2020 08:00:00 10,0 10,0 8 5 14 8 S 1010,9 0 0,0
23.10.2020 07:00:00 10,1 10,1 7 4 14 7 S 1010,5 0 0,0
23.10.2020 06:00:00 9,4 9,4 5 3 9 5 S 1010,8 0 0,0
23.10.2020 05:00:00 8,7 8,7 6 3 9 5 SSE 1011,1 0 0,0
23.10.2020 04:00:00 8,5 8,5 4 2 10 6 SE 1011,7 0 0,0
23.10.2020 03:00:00 9,0 9,0 9 5 10 6 SSE 1011,9 0 0,0
23.10.2020 02:00:00 8,0 8,0 4 2 8 4 S 1012,6 0 0,0
23.10.2020 01:00:00 8,2 8,2 0 0 7 4 N 1012,7 0 0,0
23.10.2020 00:00:00 8,8 8,8 0 0 9 5 N 1012,7 0 0,0
22.10.2020 23:00:00 9,9 9,9 6 3 8 5 S 1012,8 0 0,0
22.10.2020 22:00:00 9,3 9,3 4 2 8 5 SSW 1012,8 0 0,0
22.10.2020 21:00:00 10,1 10,1 0 0 5 3 N 1012,5 0 0,0
22.10.2020 20:00:00 11,9 11,5 5 3 9 5 SSW 1012,4 0 0,0
22.10.2020 19:00:00 13,0 11,7 7 4 10 5 SW 1012,1 0 0,0
22.10.2020 18:00:00 13,9 11,7 8 4 16 9 SSW 1011,8 28 0,0
22.10.2020 17:00:00 15,9 12,2 10 5 27 15 SW 1011,3 51 0,0
22.10.2020 16:00:00 15,9 11,5 15 8 29 16 SW 1011,2 53 0,0
22.10.2020 15:00:00 16,5 12,2 16 9 27 15 SW 1011,1 43 0,0
22.10.2020 14:00:00 15,8 12,9 15 8 27 15 SSW 1011,2 20 0,0
22.10.2020 13:00:00 16,4 13,4 14 8 24 13 SSW 1011,6 14 0,0
22.10.2020 12:00:00 15,1 12,4 9 5 22 12 SW 1012,1 2 0,0
22.10.2020 11:00:00 14,7 12,2 13 7 21 11 S 1011,6 7 0,0
22.10.2020 10:00:00 13,8 12,2 11 6 21 12 SSW 1011,9 18 0,0
22.10.2020 09:00:00 12,7 11,5 13 7 18 10 SSW 1011,5 12 0,0
22.10.2020 08:00:00 11,2 10,5 9 5 18 10 SSW 1010,8 0 0,0
22.10.2020 07:00:00 11,2 10,8 11 6 18 10 SSW 1009,8 0 0,0
22.10.2020 06:00:00 11,7 11,3 13 7 21 12 SSW 1009,6 0 0,0
22.10.2020 05:00:00 12,0 11,5 9 5 20 11 SSW 1009,6 0 0,0
22.10.2020 04:00:00 12,5 11,9 13 7 22 12 SSW 1009,6 0 0,0
22.10.2020 03:00:00 12,7 12,0 13 7 23 12 SSW 1009,2 0 0,0
22.10.2020 02:00:00 13,5 12,7 15 8 25 13 SSW 1009,0 0 0,0
22.10.2020 01:00:00 13,5 12,8 11 6 18 10 SSW 1008,7 0 0,0
22.10.2020 00:00:00 14,0 13,2 13 7 24 13 SSW 1007,8 0 0,0
21.10.2020 23:00:00 14,7 14,1 9 5 18 10 SW 1007,4 0 0,0
21.10.2020 22:00:00 14,8 14,2 10 5 20 11 SSW 1006,8 0 0,0
21.10.2020 21:00:00 14,9 14,1 13 7 34 19 SW 1005,9 0 0,0
21.10.2020 20:00:00 15,9 13,5 19 10 40 22 SW 1005,1 0 0,0
21.10.2020 19:00:00 16,1 13,7 22 12 50 27 SW 1004,0 0 0,5
21.10.2020 18:00:00 17,7 13,2 30 16 61 33 SW 1002,2 0 0,0
21.10.2020 17:00:00 18,2 13,4 29 16 58 32 SSW 1000,3 8 0,1
21.10.2020 16:00:00 18,7 13,5 36 20 69 37 SW 999,3 0 0,3
21.10.2020 15:00:00 19,6 13,8 39 21 79 43 SSW 998,3 14 0,1
21.10.2020 14:00:00 19,2 14,5 46 25 80 43 SSW 997,3 9 0,1
21.10.2020 13:00:00 19,8 14,3 43 23 74 40 SSW 996,5 25 0,0
21.10.2020 12:00:00 18,3 13,4 35 19 60 32 S 996,5 3 0,0
21.10.2020 11:00:00 16,6 12,5 29 16 49 27 S 996,7 5 0,0
21.10.2020 10:00:00 14,5 12,3 23 13 40 22 SSE 997,8 0 0,0
21.10.2020 09:00:00 13,1 13,1 17 9 35 19 SSE 999,3 0 1,9
21.10.2020 08:00:00 12,9 12,9 17 9 38 21 S 1000,0 0 1,8
21.10.2020 07:00:00 12,9 12,8 22 12 37 20 S 1000,2 0 1,9
21.10.2020 06:00:00 13,0 13,0 16 9 29 16 SSE 1001,1 0 2,6
21.10.2020 05:00:00 13,2 13,2 14 8 27 15 S 1001,9 0 1,8
21.10.2020 04:00:00 13,3 13,3 13 7 21 12 SSE 1002,5 0 1,0
21.10.2020 03:00:00 13,6 13,5 10 6 16 9 SSE 1003,1 0 0,2
21.10.2020 02:00:00 13,9 13,6 10 6 23 12 S 1004,2 0 0,2
21.10.2020 01:00:00 14,4 13,6 14 8 26 14 S 1004,3 0 0,0
21.10.2020 00:00:00 14,7 13,7 18 10 30 16 S 1004,8 0 0,0
20.10.2020 23:00:00 14,9 13,8 23 13 36 19 S 1005,2 0 0,0
20.10.2020 22:00:00 14,7 13,7 19 10 35 19 S 1005,6 0 0,0

tt = Température de l'air
td = dewpoint
ff = Vitesse du vent
fx = gusts
dd = Direction du vent
ppp = reduced air pressure
sd = Ensoleillement
rr = Quantités de précipitations

stations d'obs. à proximité